<?xml version="1.0" encoding="UTF-8"?>
<gpx creator="Wikiloc - https://www.wikiloc.com" version="1.1" xmlns="http://www.topografix.com/GPX/1/1" xmlns:xsi="http://www.w3.org/2001/XMLSchema-instance" xsi:schemaLocation="http://www.topografix.com/GPX/1/1 http://www.topografix.com/GPX/1/1/gpx.xsd">
  <metadata>
    <name>Wikiloc - sentiero fantastico</name>
    <author>
      <name>owen782</name>
      <link href="https://www.wikiloc.com/wikiloc/user.do?id=5312202">
        <text>owen782 on Wikiloc</text>
      </link>
    </author>
    <link href="https://www.wikiloc.com/walking-trails/sentiero-fantastico-94399229">
      <text>sentiero fantastico on Wikiloc</text>
    </link>
    <time>2022-02-04T14:14:33Z</time>
  </metadata>
  <wpt lat="43.149485" lon="12.323600">
    <ele>465.3</ele>
    <time>2022-02-04T14:14:33Z</time>
    <name>Partenza/Arrivo</name>
    <cmt></cmt>
    <desc></desc>
  </wpt>
  <wpt lat="43.150646" lon="12.327624">
    <ele>465.9</ele>
    <time>2022-02-04T14:14:33Z</time>
    <name>Casa degli Orchi</name>
    <cmt></cmt>
    <desc></desc>
  </wpt>
  <wpt lat="43.149675" lon="12.322311">
    <ele>455.5</ele>
    <time>2022-02-04T14:14:33Z</time>
    <name>Troscia dei Merli</name>
    <cmt></cmt>
    <desc></desc>
  </wpt>
  <wpt lat="43.149586" lon="12.324913">
    <ele>474.8</ele>
    <time>2022-02-04T14:14:33Z</time>
    <name>Magazzino degli orchi</name>
    <cmt></cmt>
    <desc></desc>
  </wpt>
  <wpt lat="43.149301" lon="12.324383">
    <ele>473.4</ele>
    <time>2022-02-04T14:14:33Z</time>
    <name>Radura delle streghe</name>
    <cmt></cmt>
    <desc></desc>
  </wpt>
  <trk>
    <name>sentiero fantastico</name>
    <cmt></cmt>
    <desc></desc>
    <trkseg>
      <trkpt lat="43.149380" lon="12.323980">
        <ele>469.163</ele>
        <time>2022-02-04T14:15:50Z</time>
      </trkpt>
      <trkpt lat="43.149414" lon="12.324240">
        <ele>471.044</ele>
        <time>2022-02-04T14:16:10Z</time>
      </trkpt>
      <trkpt lat="43.149395" lon="12.324380">
        <ele>472.718</ele>
        <time>2022-02-04T14:16:30Z</time>
      </trkpt>
      <trkpt lat="43.149392" lon="12.324503">
        <ele>473.708</ele>
        <time>2022-02-04T14:16:50Z</time>
      </trkpt>
      <trkpt lat="43.149445" lon="12.324829">
        <ele>475.475</ele>
        <time>2022-02-04T14:17:10Z</time>
      </trkpt>
      <trkpt lat="43.149488" lon="12.325016">
        <ele>475.820</ele>
        <time>2022-02-04T14:17:30Z</time>
      </trkpt>
      <trkpt lat="43.149513" lon="12.325181">
        <ele>476.689</ele>
        <time>2022-02-04T14:17:50Z</time>
      </trkpt>
      <trkpt lat="43.149516" lon="12.325414">
        <ele>477.245</ele>
        <time>2022-02-04T14:18:10Z</time>
      </trkpt>
      <trkpt lat="43.149497" lon="12.325605">
        <ele>477.565</ele>
        <time>2022-02-04T14:18:30Z</time>
      </trkpt>
      <trkpt lat="43.149482" lon="12.325788">
        <ele>477.828</ele>
        <time>2022-02-04T14:18:50Z</time>
      </trkpt>
      <trkpt lat="43.149368" lon="12.326080">
        <ele>477.798</ele>
        <time>2022-02-04T14:19:10Z</time>
      </trkpt>
      <trkpt lat="43.149347" lon="12.326199">
        <ele>477.625</ele>
        <time>2022-02-04T14:19:30Z</time>
      </trkpt>
      <trkpt lat="43.149340" lon="12.326313">
        <ele>477.458</ele>
        <time>2022-02-04T14:19:50Z</time>
      </trkpt>
      <trkpt lat="43.149351" lon="12.326447">
        <ele>477.552</ele>
        <time>2022-02-04T14:20:10Z</time>
      </trkpt>
      <trkpt lat="43.149380" lon="12.326542">
        <ele>477.817</ele>
        <time>2022-02-04T14:20:30Z</time>
      </trkpt>
      <trkpt lat="43.149429" lon="12.326648">
        <ele>478.008</ele>
        <time>2022-02-04T14:20:50Z</time>
      </trkpt>
      <trkpt lat="43.149590" lon="12.326932">
        <ele>478.464</ele>
        <time>2022-02-04T14:21:10Z</time>
      </trkpt>
      <trkpt lat="43.149695" lon="12.327199">
        <ele>476.319</ele>
        <time>2022-02-04T14:21:30Z</time>
      </trkpt>
      <trkpt lat="43.149767" lon="12.327284">
        <ele>475.258</ele>
        <time>2022-02-04T14:21:50Z</time>
      </trkpt>
      <trkpt lat="43.149949" lon="12.327432">
        <ele>472.994</ele>
        <time>2022-02-04T14:22:10Z</time>
      </trkpt>
      <trkpt lat="43.150014" lon="12.327526">
        <ele>471.964</ele>
        <time>2022-02-04T14:22:30Z</time>
      </trkpt>
      <trkpt lat="43.150082" lon="12.327674">
        <ele>470.937</ele>
        <time>2022-02-04T14:22:50Z</time>
      </trkpt>
      <trkpt lat="43.150159" lon="12.327814">
        <ele>469.577</ele>
        <time>2022-02-04T14:23:10Z</time>
      </trkpt>
      <trkpt lat="43.150216" lon="12.327971">
        <ele>467.434</ele>
        <time>2022-02-04T14:23:30Z</time>
      </trkpt>
      <trkpt lat="43.150255" lon="12.328060">
        <ele>466.188</ele>
        <time>2022-02-04T14:23:50Z</time>
      </trkpt>
      <trkpt lat="43.150404" lon="12.328098">
        <ele>464.424</ele>
        <time>2022-02-04T14:24:10Z</time>
      </trkpt>
      <trkpt lat="43.150543" lon="12.328060">
        <ele>464.026</ele>
        <time>2022-02-04T14:24:30Z</time>
      </trkpt>
      <trkpt lat="43.150683" lon="12.327896">
        <ele>463.608</ele>
        <time>2022-02-04T14:24:50Z</time>
      </trkpt>
      <trkpt lat="43.150765" lon="12.327822">
        <ele>463.367</ele>
        <time>2022-02-04T14:25:10Z</time>
      </trkpt>
      <trkpt lat="43.150916" lon="12.327723">
        <ele>461.782</ele>
        <time>2022-02-04T14:25:30Z</time>
      </trkpt>
      <trkpt lat="43.151010" lon="12.327704">
        <ele>459.921</ele>
        <time>2022-02-04T14:25:50Z</time>
      </trkpt>
      <trkpt lat="43.151208" lon="12.327581">
        <ele>455.857</ele>
        <time>2022-02-04T14:26:10Z</time>
      </trkpt>
      <trkpt lat="43.151233" lon="12.327445">
        <ele>455.467</ele>
        <time>2022-02-04T14:26:30Z</time>
      </trkpt>
      <trkpt lat="43.151264" lon="12.327253">
        <ele>454.650</ele>
        <time>2022-02-04T14:26:50Z</time>
      </trkpt>
      <trkpt lat="43.151304" lon="12.327038">
        <ele>452.690</ele>
        <time>2022-02-04T14:27:10Z</time>
      </trkpt>
      <trkpt lat="43.151283" lon="12.326745">
        <ele>452.447</ele>
        <time>2022-02-04T14:27:30Z</time>
      </trkpt>
      <trkpt lat="43.151248" lon="12.326398">
        <ele>454.573</ele>
        <time>2022-02-04T14:27:50Z</time>
      </trkpt>
      <trkpt lat="43.151246" lon="12.326306">
        <ele>454.785</ele>
        <time>2022-02-04T14:28:10Z</time>
      </trkpt>
      <trkpt lat="43.151220" lon="12.326148">
        <ele>455.413</ele>
        <time>2022-02-04T14:28:30Z</time>
      </trkpt>
      <trkpt lat="43.151223" lon="12.325923">
        <ele>455.008</ele>
        <time>2022-02-04T14:28:50Z</time>
      </trkpt>
      <trkpt lat="43.151223" lon="12.325793">
        <ele>454.696</ele>
        <time>2022-02-04T14:29:10Z</time>
      </trkpt>
      <trkpt lat="43.151242" lon="12.325592">
        <ele>453.341</ele>
        <time>2022-02-04T14:29:30Z</time>
      </trkpt>
      <trkpt lat="43.151185" lon="12.325523">
        <ele>453.460</ele>
        <time>2022-02-04T14:29:50Z</time>
      </trkpt>
      <trkpt lat="43.151109" lon="12.325452">
        <ele>453.716</ele>
        <time>2022-02-04T14:30:10Z</time>
      </trkpt>
      <trkpt lat="43.150877" lon="12.325205">
        <ele>457.026</ele>
        <time>2022-02-04T14:30:30Z</time>
      </trkpt>
      <trkpt lat="43.150777" lon="12.324963">
        <ele>457.469</ele>
        <time>2022-02-04T14:30:50Z</time>
      </trkpt>
      <trkpt lat="43.150656" lon="12.324787">
        <ele>457.329</ele>
        <time>2022-02-04T14:31:10Z</time>
      </trkpt>
      <trkpt lat="43.150580" lon="12.324490">
        <ele>456.146</ele>
        <time>2022-02-04T14:31:30Z</time>
      </trkpt>
      <trkpt lat="43.150575" lon="12.324328">
        <ele>455.085</ele>
        <time>2022-02-04T14:31:50Z</time>
      </trkpt>
      <trkpt lat="43.150530" lon="12.324202">
        <ele>454.789</ele>
        <time>2022-02-04T14:32:10Z</time>
      </trkpt>
      <trkpt lat="43.150388" lon="12.324258">
        <ele>457.517</ele>
        <time>2022-02-04T14:32:30Z</time>
      </trkpt>
      <trkpt lat="43.150147" lon="12.324243">
        <ele>461.808</ele>
        <time>2022-02-04T14:32:50Z</time>
      </trkpt>
      <trkpt lat="43.149884" lon="12.324253">
        <ele>466.017</ele>
        <time>2022-02-04T14:33:10Z</time>
      </trkpt>
      <trkpt lat="43.149748" lon="12.324238">
        <ele>467.582</ele>
        <time>2022-02-04T14:33:30Z</time>
      </trkpt>
      <trkpt lat="43.149572" lon="12.324137">
        <ele>468.411</ele>
        <time>2022-02-04T14:33:50Z</time>
      </trkpt>
      <trkpt lat="43.149481" lon="12.324041">
        <ele>468.767</ele>
        <time>2022-02-04T14:34:10Z</time>
      </trkpt>
      <trkpt lat="43.149380" lon="12.323980">
        <ele>469.157</ele>
        <time>2022-02-04T14:34:30Z</time>
      </trkpt>
    </trkseg>
  </trk></gpx>